Time;durP1;ratioP1;P1;durP2;ratioP2;P2;SDS_P1;SDS_P2;PMS_P1;PMS_P2;Temp;Humidity;BMP_temperature;BMP_pressure;BME280_temperature;BME280_humidity;BME280_pressure;Samples;Min_cycle;Max_cycle;Signal;HPM_P1;HPM_P2
2022/07/11 00:00:05;;;;;;;1.43;0.90;;;19.30;96.90;;;;;;6101355;23;20422;-78
2022/07/11 00:02:32;;;;;;;1.50;0.90;;;19.30;96.50;;;;;;6100320;23;20430;-78
2022/07/11 00:05:01;;;;;;;1.47;0.90;;;19.30;96.80;;;;;;6100853;23;20481;-78
2022/07/11 00:07:29;;;;;;;1.47;0.90;;;19.30;96.40;;;;;;6085834;23;20529;-78
2022/07/11 00:09:56;;;;;;;1.50;0.90;;;19.30;96.50;;;;;;6099278;23;20422;-78
2022/07/11 00:12:26;;;;;;;1.50;1.00;;;19.30;96.70;;;;;;6082798;23;20450;-78
2022/07/11 00:14:53;;;;;;;1.50;0.90;;;19.30;97.00;;;;;;6099883;23;20490;-77
2022/07/11 00:17:21;;;;;;;1.47;0.90;;;19.30;96.70;;;;;;6099788;23;20427;-78
2022/07/11 00:19:48;;;;;;;1.50;0.90;;;19.30;97.10;;;;;;6099629;23;20767;-79
2022/07/11 00:22:17;;;;;;;1.47;0.90;;;19.30;96.80;;;;;;6082621;23;20620;-78
2022/07/11 00:24:44;;;;;;;1.40;0.90;;;19.30;97.10;;;;;;6100690;23;20443;-78
2022/07/11 00:27:12;;;;;;;1.47;0.90;;;19.30;97.20;;;;;;6084363;23;20984;-78
2022/07/11 00:29:39;;;;;;;1.50;0.90;;;19.30;97.40;;;;;;6100421;23;20474;-78
2022/07/11 00:32:08;;;;;;;1.50;1.00;;;19.20;97.40;;;;;;6084249;23;20514;-78
2022/07/11 00:34:35;;;;;;;1.50;1.00;;;19.30;97.20;;;;;;6099361;23;20442;-78
2022/07/11 00:37:02;;;;;;;1.50;1.00;;;19.20;97.60;;;;;;6084423;23;20462;-78
2022/07/11 00:39:30;;;;;;;1.43;0.93;;;19.20;97.20;;;;;;6099530;23;20426;-78
2022/07/11 00:41:58;;;;;;;1.50;1.00;;;19.20;97.30;;;;;;6098748;23;20429;-77
2022/07/11 00:44:25;;;;;;;1.43;0.90;;;19.20;97.70;;;;;;6100048;23;20454;-79
2022/07/11 00:46:52;;;;;;;1.43;0.90;;;19.10;98.20;;;;;;6085216;23;20837;-78
2022/07/11 00:49:19;;;;;;;1.47;0.90;;;19.10;98.20;;;;;;6111609;23;20421;-79
2022/07/11 00:51:46;;;;;;;1.47;0.90;;;19.10;98.00;;;;;;6083768;23;20455;-79
2022/07/11 00:54:14;;;;;;;1.50;0.90;;;19.20;98.20;;;;;;6099485;23;21024;-79
2022/07/11 00:56:43;;;;;;;1.47;1.00;;;19.20;98.00;;;;;;6087096;23;20475;-78
2022/07/11 00:59:10;;;;;;;1.50;0.90;;;19.20;98.20;;;;;;6102194;23;20435;-78
2022/07/11 01:01:39;;;;;;;1.40;0.90;;;19.10;98.20;;;;;;6085769;23;20869;-79
2022/07/11 01:04:07;;;;;;;1.50;0.90;;;19.10;98.20;;;;;;6102195;23;20447;-78
2022/07/11 01:06:34;;;;;;;1.50;0.90;;;19.10;98.20;;;;;;6099867;23;20510;-78
2022/07/11 01:09:01;;;;;;;1.50;0.90;;;19.10;98.20;;;;;;6100243;23;20418;-77
2022/07/11 01:11:30;;;;;;;1.43;0.90;;;19.10;98.20;;;;;;6082612;23;20450;-79
2022/07/11 01:13:58;;;;;;;1.50;0.90;;;19.00;98.20;;;;;;6097717;23;20435;-79
2022/07/11 01:16:25;;;;;;;1.43;0.90;;;19.00;98.20;;;;;;6086245;23;20454;-80
2022/07/11 01:18:54;;;;;;;1.50;1.10;;;19.00;98.20;;;;;;6099623;23;20487;-77
2022/07/11 01:21:25;;;;;;;1.47;0.90;;;19.00;98.20;;;;;;6082633;23;20450;-78
2022/07/11 01:23:55;;;;;;;1.50;0.90;;;18.90;98.20;;;;;;6098040;23;20407;-79
2022/07/11 01:26:23;;;;;;;1.50;0.90;;;18.80;98.20;;;;;;6084247;23;20471;-78
2022/07/11 01:28:50;;;;;;;1.43;0.90;;;18.80;98.20;;;;;;6106659;23;20753;-78
2022/07/11 01:31:18;;;;;;;1.50;0.90;;;18.70;98.20;;;;;;6082814;23;20484;-79
2022/07/11 01:33:45;;;;;;;1.50;0.90;;;18.60;98.20;;;;;;6085079;23;20423;-78
2022/07/11 01:36:13;;;;;;;1.50;0.90;;;18.60;98.20;;;;;;6084897;23;20821;-78
2022/07/11 01:38:40;;;;;;;1.50;0.90;;;18.50;98.20;;;;;;6098898;23;20426;-78
2022/07/11 01:41:09;;;;;;;1.47;0.93;;;18.40;98.20;;;;;;6107794;23;20427;-78
2022/07/11 01:43:36;;;;;;;1.47;0.90;;;18.40;98.20;;;;;;6102317;23;20819;-79
2022/07/11 01:46:03;;;;;;;1.50;0.90;;;18.30;98.20;;;;;;6084933;23;20813;-78
2022/07/11 01:48:30;;;;;;;1.50;0.90;;;18.30;98.20;;;;;;6101069;23;20981;-78
2022/07/11 01:50:57;;;;;;;1.50;1.00;;;18.20;98.20;;;;;;6083977;23;20426;-77
2022/07/11 01:53:24;;;;;;;1.50;0.90;;;18.20;98.20;;;;;;6096237;23;20481;-78
2022/07/11 01:55:52;;;;;;;1.50;0.97;;;18.10;98.20;;;;;;6089094;23;20498;-79
2022/07/11 01:58:20;;;;;;;1.50;0.90;;;18.00;98.20;;;;;;6101185;23;20816;-79
2022/07/11 02:00:47;;;;;;;1.50;0.97;;;18.00;98.20;;;;;;6108399;23;20415;-79
2022/07/11 02:03:14;;;;;;;1.50;0.90;;;18.00;98.20;;;;;;6106903;23;20431;-78
2022/07/11 02:05:41;;;;;;;1.50;0.90;;;17.90;98.20;;;;;;6103970;23;20454;-78
2022/07/11 02:08:15;;;;;;;1.50;0.90;;;17.80;98.20;;;;;;6086563;23;20457;-79
2022/07/11 02:10:44;;;;;;;1.50;1.00;;;17.80;98.20;;;;;;6098647;23;20410;-79
2022/07/11 02:13:13;;;;;;;1.50;0.90;;;17.70;98.20;;;;;;6098643;23;20429;-77
2022/07/11 02:15:45;;;;;;;1.50;0.90;;;17.60;98.20;;;;;;6101962;23;20449;-77
2022/07/11 02:18:14;;;;;;;1.50;0.97;;;17.60;98.20;;;;;;6085067;23;20438;-77
2022/07/11 02:20:42;;;;;;;1.50;0.90;;;17.60;98.20;;;;;;6097641;23;20422;-78
2022/07/11 02:23:10;;;;;;;1.50;0.90;;;17.50;98.20;;;;;;6083303;23;20522;-78
2022/07/11 02:25:38;;;;;;;1.50;0.90;;;17.40;98.20;;;;;;6102792;23;20458;-79
2022/07/11 02:28:08;;;;;;;1.50;0.90;;;17.40;98.20;;;;;;6087433;23;20704;-78
2022/07/11 02:30:35;;;;;;;1.50;1.00;;;17.40;98.20;;;;;;6100667;23;20419;-78
2022/07/11 02:33:04;;;;;;;1.50;1.00;;;17.40;98.20;;;;;;6100726;23;20426;-77
2022/07/11 02:35:31;;;;;;;1.50;0.90;;;17.40;98.20;;;;;;6101123;23;20451;-78
2022/07/11 02:37:59;;;;;;;1.50;0.90;;;17.30;98.20;;;;;;6084168;23;20451;-78
2022/07/11 02:40:27;;;;;;;1.50;1.00;;;17.30;98.20;;;;;;6100599;23;20419;-78
2022/07/11 02:42:55;;;;;;;1.50;0.90;;;17.30;98.20;;;;;;6083667;23;20510;-78
2022/07/11 02:45:22;;;;;;;1.47;0.90;;;17.20;98.20;;;;;;6100119;23;20446;-78
2022/07/11 02:47:49;;;;;;;1.50;0.90;;;17.20;98.20;;;;;;6084628;23;20451;-78
2022/07/11 02:50:18;;;;;;;1.50;0.90;;;17.20;98.20;;;;;;6099750;23;20618;-78
2022/07/11 02:52:45;;;;;;;1.50;0.90;;;17.10;98.20;;;;;;6097724;23;20945;-76
2022/07/11 02:55:15;;;;;;;1.40;0.90;;;17.10;98.20;;;;;;6098277;23;20466;-78
2022/07/11 02:57:42;;;;;;;1.50;0.90;;;17.10;98.20;;;;;;6099602;23;20422;-79
2022/07/11 03:00:13;;;;;;;1.50;1.00;;;17.00;98.20;;;;;;6110292;23;20755;-78
2022/07/11 03:02:40;;;;;;;1.50;0.90;;;17.00;98.20;;;;;;6083717;23;20457;-79
2022/07/11 03:05:08;;;;;;;1.50;0.90;;;17.00;98.20;;;;;;6094419;23;20446;-79
2022/07/11 03:07:36;;;;;;;1.50;0.90;;;17.00;98.20;;;;;;6082087;23;20514;-77
2022/07/11 03:10:04;;;;;;;1.50;0.90;;;17.00;98.20;;;;;;6095957;23;21324;-78
2022/07/11 03:12:32;;;;;;;1.50;0.90;;;17.00;98.20;;;;;;6084573;23;20454;-78
2022/07/11 03:14:59;;;;;;;1.50;0.90;;;16.90;98.20;;;;;;6108323;23;20489;-78
2022/07/11 03:17:26;;;;;;;1.50;0.90;;;16.90;98.20;;;;;;6083077;23;20750;-79
2022/07/11 03:19:53;;;;;;;1.50;0.90;;;16.90;98.20;;;;;;6099115;23;20494;-79
2022/07/11 03:22:21;;;;;;;1.50;0.90;;;16.90;98.20;;;;;;6087084;23;20799;-78
2022/07/11 03:24:50;;;;;;;1.50;0.90;;;16.90;98.20;;;;;;6108057;23;20431;-79
2022/07/11 03:27:17;;;;;;;1.50;1.00;;;16.80;98.20;;;;;;6084458;23;21059;-78
2022/07/11 03:29:45;;;;;;;1.50;1.00;;;16.80;98.20;;;;;;6099627;23;21069;-78
2022/07/11 03:32:12;;;;;;;1.50;0.90;;;16.80;98.20;;;;;;6088990;23;20459;-78
2022/07/11 03:34:40;;;;;;;1.47;1.00;;;16.70;98.20;;;;;;6099867;23;20457;-78
2022/07/11 03:37:27;;;;;;;1.50;0.90;;;16.80;98.20;;;;;;6087595;23;20454;-78
2022/07/11 03:39:56;;;;;;;1.50;1.00;;;16.70;98.20;;;;;;6113080;23;20783;-78
2022/07/11 03:42:23;;;;;;;1.50;0.90;;;16.70;98.20;;;;;;6082377;23;20451;-78
2022/07/11 03:44:51;;;;;;;1.50;0.90;;;16.70;98.20;;;;;;6106739;23;20505;-79
2022/07/11 03:47:19;;;;;;;1.50;1.00;;;16.70;98.20;;;;;;6084828;23;20451;-78
2022/07/11 03:49:47;;;;;;;1.50;0.90;;;16.70;98.20;;;;;;6100013;23;20491;-78
2022/07/11 03:52:14;;;;;;;1.50;1.00;;;16.70;98.20;;;;;;6084847;23;20471;-78
2022/07/11 03:54:43;;;;;;;1.47;0.90;;;16.70;98.20;;;;;;6107662;23;20541;-78
2022/07/11 03:57:11;;;;;;;1.50;1.00;;;16.70;98.20;;;;;;6109775;23;20783;-78
2022/07/11 03:59:38;;;;;;;1.50;0.90;;;16.70;98.20;;;;;;6100877;23;20451;-78
2022/07/11 04:02:06;;;;;;;1.50;1.00;;;16.70;98.20;;;;;;6098453;23;20632;-78
2022/07/11 04:04:33;;;;;;;1.50;1.00;;;16.80;98.20;;;;;;6097977;23;20815;-76
2022/07/11 04:07:00;;;;;;;1.50;1.00;;;16.80;98.20;;;;;;6082779;23;20478;-77
2022/07/11 04:09:28;;;;;;;1.50;0.90;;;16.80;98.20;;;;;;6103381;23;20774;-78
2022/07/11 04:11:55;;;;;;;1.50;0.90;;;16.80;98.20;;;;;;6086549;23;20481;-79
2022/07/11 04:14:24;;;;;;;1.50;0.90;;;16.90;98.20;;;;;;6096211;23;20439;-78
2022/07/11 04:16:51;;;;;;;1.50;0.90;;;16.90;98.20;;;;;;6082768;23;21031;-78
2022/07/11 04:19:23;;;;;;;1.50;1.00;;;17.00;98.20;;;;;;6097996;23;20498;-77
2022/07/11 04:21:50;;;;;;;1.50;1.00;;;17.00;98.20;;;;;;6106877;23;20430;-80
2022/07/11 04:24:18;;;;;;;1.47;0.90;;;17.00;98.20;;;;;;6099354;23;20446;-78
2022/07/11 04:26:45;;;;;;;1.50;0.90;;;17.10;98.20;;;;;;6092005;23;20446;-78
2022/07/11 04:29:13;;;;;;;1.50;0.90;;;17.10;98.20;;;;;;6108962;23;20453;-77
2022/07/11 04:31:41;;;;;;;1.50;0.90;;;17.20;98.20;;;;;;6083820;23;20497;-78
2022/07/11 04:34:09;;;;;;;1.40;0.90;;;17.20;98.20;;;;;;6113380;23;20474;-78
2022/07/11 04:36:42;;;;;;;1.50;0.90;;;17.30;98.20;;;;;;6115869;23;20454;-78
2022/07/11 04:39:14;;;;;;;1.50;0.90;;;17.30;98.20;;;;;;6116869;23;20419;-78
2022/07/11 04:41:42;;;;;;;1.50;1.00;;;17.40;98.20;;;;;;6093484;23;20454;-78
2022/07/11 04:44:13;;;;;;;1.50;1.00;;;17.40;98.20;;;;;;6103414;23;20439;-78
2022/07/11 04:46:42;;;;;;;1.50;0.90;;;17.50;98.20;;;;;;6095326;23;20451;-78
2022/07/11 04:49:10;;;;;;;1.50;0.90;;;17.60;98.20;;;;;;6113125;23;20443;-77
2022/07/11 04:51:37;;;;;;;1.50;0.90;;;17.60;98.20;;;;;;6114542;23;20429;-77
2022/07/11 04:54:05;;;;;;;1.50;1.00;;;17.70;98.20;;;;;;6104245;23;20438;-77
2022/07/11 04:56:34;;;;;;;1.50;0.90;;;17.70;98.20;;;;;;6093169;23;20522;-78
2022/07/11 04:59:02;;;;;;;1.50;0.90;;;17.80;98.20;;;;;;6110250;23;20929;-77
2022/07/11 05:01:30;;;;;;;1.50;0.90;;;17.80;98.20;;;;;;6082392;23;20498;-77
2022/07/11 05:03:58;;;;;;;1.47;0.90;;;17.80;98.20;;;;;;6096831;23;20489;-79
2022/07/11 05:06:27;;;;;;;1.50;0.90;;;17.80;98.20;;;;;;6096153;23;20446;-78
2022/07/11 05:08:54;;;;;;;1.50;0.90;;;17.80;98.20;;;;;;6113301;23;20976;-78
2022/07/11 05:11:23;;;;;;;1.50;0.90;;;17.80;98.20;;;;;;6099286;23;20976;-76
2022/07/11 05:13:50;;;;;;;1.50;1.00;;;17.80;98.20;;;;;;6098737;23;20466;-78
2022/07/11 05:16:17;;;;;;;1.50;0.93;;;17.80;98.20;;;;;;6100648;23;20854;-78
2022/07/11 05:18:45;;;;;;;1.50;1.00;;;17.90;98.20;;;;;;6100360;23;20488;-78
2022/07/11 05:21:21;;;;;;;1.43;0.90;;;17.90;98.20;;;;;;6111103;23;20430;-78
2022/07/11 05:23:49;;;;;;;1.50;1.00;;;18.00;98.20;;;;;;6116390;23;20402;-79
2022/07/11 05:26:20;;;;;;;1.50;0.93;;;18.00;98.20;;;;;;6107344;23;20446;-78
2022/07/11 05:28:48;;;;;;;1.50;0.90;;;18.10;98.20;;;;;;6125425;23;20718;-78
2022/07/11 05:31:18;;;;;;;1.43;0.90;;;18.10;98.20;;;;;;6120865;23;20435;-78
2022/07/11 05:33:46;;;;;;;1.50;0.90;;;18.10;98.20;;;;;;6110909;23;20447;-78
2022/07/11 05:36:25;;;;;;;1.50;0.90;;;18.10;98.20;;;;;;6101874;23;20446;-78
2022/07/11 05:38:53;;;;;;;1.50;0.90;;;18.10;98.20;;;;;;6109954;23;20435;-78
2022/07/11 05:41:20;;;;;;;1.47;0.90;;;18.10;98.20;;;;;;6093018;23;20450;-78
2022/07/11 05:43:48;;;;;;;1.50;0.90;;;18.20;98.20;;;;;;6116245;23;20481;-77
2022/07/11 05:46:15;;;;;;;1.50;0.90;;;18.20;98.20;;;;;;6105792;23;20422;-78
2022/07/11 05:48:43;;;;;;;1.50;0.90;;;18.20;98.20;;;;;;6116002;23;20418;-78
2022/07/11 05:51:13;;;;;;;1.47;0.90;;;18.30;98.20;;;;;;6090144;23;20514;-77
2022/07/11 05:53:49;;;;;;;1.50;0.90;;;18.30;98.20;;;;;;6105236;23;20426;-79
2022/07/11 05:56:19;;;;;;;1.50;1.00;;;18.40;98.20;;;;;;6102221;23;20481;-79
2022/07/11 05:58:47;;;;;;;1.47;0.90;;;18.40;98.20;;;;;;6106707;23;20426;-79
2022/07/11 06:01:32;;;;;;;1.47;0.90;;;18.40;98.20;;;;;;6105654;23;20808;-78
2022/07/11 06:04:00;;;;;;;1.47;0.90;;;18.50;98.20;;;;;;6106630;23;20403;-78
2022/07/11 06:06:29;;;;;;;1.50;0.90;;;18.60;98.20;;;;;;6099593;23;20454;-78
2022/07/11 06:08:58;;;;;;;1.50;0.90;;;18.60;98.20;;;;;;6116317;23;20430;-79
2022/07/11 06:11:26;;;;;;;1.47;0.90;;;18.70;98.20;;;;;;6089980;23;20502;-78
2022/07/11 06:13:54;;;;;;;1.47;0.90;;;18.70;98.20;;;;;;6115693;23;20426;-78
2022/07/11 06:16:30;;;;;;;1.50;0.90;;;18.80;98.20;;;;;;6107315;23;20426;-78
2022/07/11 06:18:58;;;;;;;1.50;1.00;;;18.80;98.20;;;;;;6106917;23;20438;-78
2022/07/11 06:21:25;;;;;;;1.50;0.90;;;18.90;98.20;;;;;;6090721;23;20447;-80
2022/07/11 06:23:54;;;;;;;1.50;0.90;;;19.00;98.20;;;;;;6114910;23;20497;-77
2022/07/11 06:26:29;;;;;;;1.50;0.90;;;19.00;98.20;;;;;;6106889;23;20981;-78
2022/07/11 06:28:58;;;;;;;1.50;1.00;;;19.10;98.20;;;;;;6116867;23;20422;-78
2022/07/11 06:31:26;;;;;;;1.50;1.00;;;19.20;98.20;;;;;;6096215;23;20461;-78
2022/07/11 06:33:57;;;;;;;1.50;0.90;;;19.20;98.20;;;;;;6106030;23;20428;-78
2022/07/11 06:36:25;;;;;;;1.50;0.90;;;19.20;98.20;;;;;;6105848;23;20438;-78
2022/07/11 06:38:53;;;;;;;1.50;0.90;;;19.20;98.20;;;;;;6115929;23;20470;-77
2022/07/11 06:41:21;;;;;;;1.50;0.90;;;19.20;98.20;;;;;;6104515;23;20443;-79
2022/07/11 06:43:52;;;;;;;1.50;0.90;;;19.20;98.20;;;;;;6115907;23;20437;-79
2022/07/11 06:46:20;;;;;;;1.50;0.90;;;19.20;98.20;;;;;;6099898;23;20474;-78
2022/07/11 06:49:07;;;;;;;1.50;0.90;;;19.20;98.20;;;;;;6105164;23;20451;-78
2022/07/11 06:51:35;;;;;;;1.47;0.90;;;19.20;98.20;;;;;;6096968;23;20461;-78
2022/07/11 06:54:05;;;;;;;1.47;0.90;;;19.20;98.20;;;;;;6107072;23;20905;-78
2022/07/11 06:56:36;;;;;;;1.50;0.90;;;19.30;98.20;;;;;;6098528;23;20478;-78
2022/07/11 06:59:05;;;;;;;1.47;0.87;;;19.30;98.20;;;;;;6116284;23;20454;-78
2022/07/11 07:01:36;;;;;;;1.50;0.90;;;19.30;98.20;;;;;;6099249;23;20455;-78
2022/07/11 07:04:04;;;;;;;1.50;0.90;;;19.30;98.20;;;;;;6116476;23;20455;-78
2022/07/11 07:06:32;;;;;;;1.50;0.90;;;19.30;98.20;;;;;;6091481;23;20514;-78
2022/07/11 07:09:06;;;;;;;1.47;1.00;;;19.30;98.20;;;;;;6116615;23;20446;-77
2022/07/11 07:11:34;;;;;;;1.50;0.90;;;19.30;98.20;;;;;;6096825;23;20455;-78
2022/07/11 07:14:02;;;;;;;1.47;0.90;;;19.30;98.20;;;;;;6115005;23;20415;-78
2022/07/11 07:16:31;;;;;;;1.47;0.90;;;19.40;98.20;;;;;;6091471;23;20447;-77
2022/07/11 07:18:59;;;;;;;1.50;0.90;;;19.30;98.20;;;;;;6115556;23;20478;-78
2022/07/11 07:21:27;;;;;;;1.50;0.90;;;19.30;98.20;;;;;;6092309;23;20470;-77
2022/07/11 07:23:55;;;;;;;1.47;0.90;;;19.40;98.20;;;;;;6110780;23;20437;-78
2022/07/11 07:26:23;;;;;;;1.47;0.90;;;19.40;98.20;;;;;;6094999;23;20529;-79
2022/07/11 07:28:51;;;;;;;1.47;0.90;;;19.40;98.20;;;;;;6105630;23;20457;-79
2022/07/11 07:31:19;;;;;;;1.50;0.90;;;19.40;98.20;;;;;;6091242;23;20465;-77
2022/07/11 07:33:49;;;;;;;1.43;0.90;;;19.40;98.20;;;;;;6113544;23;20437;-76
2022/07/11 07:36:19;;;;;;;1.43;0.90;;;19.30;98.20;;;;;;6097393;23;20482;-78
2022/07/11 07:38:50;;;;;;;1.50;0.90;;;19.30;98.20;;;;;;6106203;23;20419;-78
2022/07/11 07:41:17;;;;;;;1.70;1.50;;;19.30;98.20;;;;;;6088371;23;20478;-78
2022/07/11 07:43:48;;;;;;;2.03;1.83;;;19.30;98.20;;;;;;6100431;23;20423;-77
2022/07/11 07:46:16;;;;;;;1.50;0.90;;;19.30;98.20;;;;;;6089017;23;20459;-77
2022/07/11 07:48:44;;;;;;;1.47;0.90;;;19.30;98.20;;;;;;6107046;23;20893;-76
2022/07/11 07:51:13;;;;;;;1.47;0.90;;;19.30;98.20;;;;;;6108746;23;20975;-79
2022/07/11 07:53:41;;;;;;;1.47;0.90;;;19.30;98.20;;;;;;6111442;23;20486;-78
2022/07/11 07:56:09;;;;;;;1.47;0.90;;;19.30;98.20;;;;;;6102054;23;20446;-77
2022/07/11 07:58:44;;;;;;;1.47;0.90;;;19.30;98.20;;;;;;6101307;23;20423;-76
2022/07/11 08:03:56;;;;;;;1.43;0.90;;;19.50;98.20;;;;;;6101039;23;20458;-77
2022/07/11 08:06:26;;;;;;;1.50;1.00;;;19.50;98.20;;;;;;6110994;23;20423;-76
2022/07/11 08:08:54;;;;;;;1.47;0.90;;;19.60;98.20;;;;;;6101005;23;20506;-78
2022/07/11 08:11:25;;;;;;;1.47;0.90;;;19.60;98.20;;;;;;6087849;23;20455;-76
2022/07/11 08:13:53;;;;;;;1.50;0.90;;;19.60;98.20;;;;;;6107576;23;20430;-76
2022/07/11 08:16:21;;;;;;;1.60;1.50;;;19.70;98.20;;;;;;6111021;23;20426;-76
2022/07/11 08:18:49;;;;;;;1.50;0.90;;;19.70;98.20;;;;;;6099867;23;20462;-77
2022/07/11 08:21:21;;;;;;;2.43;1.10;;;19.60;98.20;;;;;;6086574;23;20461;-77
2022/07/11 08:23:51;;;;;;;1.47;0.93;;;19.60;98.20;;;;;;6110551;23;20399;-77
2022/07/11 08:26:18;;;;;;;1.50;0.90;;;19.70;98.20;;;;;;6115506;23;20995;-77
2022/07/11 08:28:47;;;;;;;1.50;0.90;;;19.70;98.20;;;;;;6105202;23;20450;-77
2022/07/11 08:31:15;;;;;;;1.50;0.90;;;19.70;98.20;;;;;;6093383;23;20457;-76
2022/07/11 08:33:50;;;;;;;1.50;0.90;;;19.80;98.20;;;;;;6111237;23;20816;-77
2022/07/11 08:36:18;;;;;;;1.50;0.90;;;19.90;98.20;;;;;;6087036;23;20446;-76
2022/07/11 08:38:47;;;;;;;1.50;0.90;;;20.00;98.20;;;;;;6099770;23;20419;-75
2022/07/11 08:41:19;;;;;;;1.50;0.90;;;20.20;98.20;;;;;;6086118;23;20451;-78
2022/07/11 08:43:48;;;;;;;1.50;0.90;;;20.40;98.20;;;;;;6110046;23;20423;-77
2022/07/11 08:46:16;;;;;;;1.50;0.90;;;20.50;98.20;;;;;;6095500;23;20450;-77
2022/07/11 08:48:44;;;;;;;1.50;0.90;;;20.60;98.20;;;;;;6100193;23;20450;-78
2022/07/11 08:51:13;;;;;;;1.50;0.90;;;20.70;98.20;;;;;;6107809;23;20431;-77
2022/07/11 08:53:46;;;;;;;1.50;0.90;;;20.70;98.20;;;;;;6111587;23;20423;-76
2022/07/11 08:56:17;;;;;;;1.50;0.90;;;20.80;98.20;;;;;;6087094;23;20488;-77
2022/07/11 08:58:49;;;;;;;1.50;0.90;;;20.70;98.20;;;;;;6109206;23;20449;-78
2022/07/11 09:01:18;;;;;;;1.50;0.90;;;20.70;98.20;;;;;;6101551;23;20760;-77
2022/07/11 09:04:00;;;;;;;1.50;0.90;;;20.70;98.20;;;;;;6104959;23;20509;-80
2022/07/11 09:06:27;;;;;;;1.50;0.90;;;20.70;98.20;;;;;;6088377;23;20454;-77
2022/07/11 09:08:59;;;;;;;1.50;0.90;;;20.80;98.20;;;;;;6101507;23;20482;-78
2022/07/11 09:11:30;;;;;;;1.50;0.90;;;20.80;98.20;;;;;;6092797;23;20458;-78
2022/07/11 09:13:58;;;;;;;1.47;0.90;;;20.70;98.20;;;;;;6109340;23;21170;-77
2022/07/11 09:16:28;;;;;;;2.03;1.37;;;20.80;98.20;;;;;;6095137;23;20485;-79
2022/07/11 09:18:56;;;;;;;1.47;0.80;;;20.80;98.20;;;;;;6111276;23;20425;-78
2022/07/11 09:26:55;;;;;;;1.43;0.90;;;20.80;98.20;;;;;;6092008;23;20490;-77
2022/07/11 09:29:24;;;;;;;1.47;0.93;;;20.70;98.20;;;;;;6102542;23;20446;-77
2022/07/11 09:31:52;;;;;;;1.43;0.90;;;20.70;98.20;;;;;;6090866;23;20455;-78
2022/07/11 09:34:23;;;;;;;1.50;0.90;;;20.70;98.20;;;;;;6112242;23;20450;-77
2022/07/11 09:36:54;;;;;;;1.50;1.00;;;20.70;98.20;;;;;;6092977;23;20964;-78
2022/07/11 09:39:24;;;;;;;1.50;0.90;;;20.80;98.20;;;;;;6113682;23;20429;-79
2022/07/11 09:41:53;;;;;;;1.47;0.90;;;20.90;98.20;;;;;;6091849;23;20457;-79
2022/07/11 09:44:28;;;;;;;1.47;0.90;;;20.90;98.20;;;;;;6110852;23;20457;-78
2022/07/11 09:46:57;;;;;;;1.50;0.90;;;20.90;98.20;;;;;;6088134;23;20454;-78
2022/07/11 09:49:32;;;;;;;1.50;0.90;;;20.90;98.20;;;;;;6112620;23;20477;-77
2022/07/11 09:52:09;;;;;;;1.50;0.90;;;20.90;98.20;;;;;;6103360;23;20422;-77
2022/07/11 09:54:54;;;;;;;1.47;0.90;;;20.80;98.20;;;;;;6103523;23;20445;-77
2022/07/11 09:57:31;;;;;;;1.43;0.90;;;20.80;98.20;;;;;;6112874;23;20454;-78
2022/07/11 10:00:01;;;;;;;1.50;0.90;;;20.90;98.20;;;;;;6114459;23;20399;-77
2022/07/11 10:02:28;;;;;;;1.50;0.90;;;20.90;98.20;;;;;;6093561;23;20795;-79
2022/07/11 10:04:58;;;;;;;1.50;0.90;;;21.00;98.10;;;;;;6096442;23;20453;-78
2022/07/11 10:07:25;;;;;;;1.50;0.90;;;21.00;98.10;;;;;;6097577;23;20426;-79
2022/07/11 10:09:53;;;;;;;1.50;0.90;;;21.00;98.10;;;;;;6106706;23;20593;-79
2022/07/11 10:12:21;;;;;;;1.47;0.90;;;21.00;97.90;;;;;;6096716;23;20485;-79
2022/07/11 10:14:50;;;;;;;1.47;0.90;;;21.00;98.10;;;;;;6097693;23;20454;-78
2022/07/11 10:17:28;;;;;;;1.47;0.90;;;21.20;98.20;;;;;;6085355;23;20870;-78
2022/07/11 10:20:02;;;;;;;1.50;0.90;;;21.20;97.70;;;;;;6097477;23;20439;-79
2022/07/11 10:22:38;;;;;;;1.50;0.90;;;21.20;97.00;;;;;;6081707;23;20483;-77
2022/07/11 10:25:15;;;;;;;1.50;0.90;;;21.10;97.30;;;;;;6099891;23;20480;-78
2022/07/11 10:27:56;;;;;;;1.70;1.33;;;21.10;97.50;;;;;;6082488;23;20461;-77
2022/07/11 10:30:41;;;;;;;1.60;1.23;;;21.10;97.30;;;;;;6106610;23;20917;-76
2022/07/11 10:33:10;;;;;;;1.47;0.90;;;21.20;97.50;;;;;;6081259;23;20450;-77
2022/07/11 10:35:41;;;;;;;1.50;0.90;;;21.20;97.40;;;;;;6098027;23;20524;-78
2022/07/11 10:38:09;;;;;;;1.50;0.90;;;21.20;97.60;;;;;;6083148;23;20442;-78
2022/07/11 10:40:46;;;;;;;1.50;0.90;;;21.20;97.40;;;;;;6097849;23;20423;-78
2022/07/11 10:43:15;;;;;;;1.50;1.00;;;21.30;97.40;;;;;;6082002;23;20449;-79
2022/07/11 10:45:57;;;;;;;1.50;0.90;;;21.40;97.00;;;;;;6097643;23;20442;-78
2022/07/11 10:48:27;;;;;;;1.50;0.90;;;21.50;96.70;;;;;;6081440;23;20447;-79
2022/07/11 10:51:17;;;;;;;1.50;0.90;;;21.50;97.00;;;;;;6080721;23;20855;-80
2022/07/11 10:53:49;;;;;;;1.50;0.90;;;21.60;96.60;;;;;;6097398;23;20419;-77
2022/07/11 10:56:53;;;;;;;1.50;0.90;;;21.60;96.20;;;;;;6097670;23;20410;-78
2022/07/11 10:59:20;;;;;;;1.50;0.90;;;21.50;96.10;;;;;;6098368;23;20399;-79
2022/07/11 11:02:04;;;;;;;1.50;0.90;;;21.50;96.20;;;;;;6080074;23;20455;-79
2022/07/11 11:04:48;;;;;;;1.50;0.90;;;21.60;95.80;;;;;;6095495;23;20510;-78
2022/07/11 11:07:31;;;;;;;1.50;0.90;;;21.70;95.70;;;;;;6080640;23;20798;-78
2022/07/11 11:10:00;;;;;;;1.50;0.90;;;21.70;95.80;;;;;;6096422;23;20446;-77
2022/07/11 11:13:04;;;;;;;1.50;0.90;;;21.80;95.70;;;;;;6080366;23;20765;-80
2022/07/11 11:15:35;;;;;;;1.50;0.90;;;22.00;94.90;;;;;;6106977;23;20948;-76
2022/07/11 11:18:41;;;;;;;1.50;0.90;;;22.20;95.10;;;;;;6082778;23;20834;-78
2022/07/11 11:21:33;;;;;;;1.50;0.90;;;22.40;93.90;;;;;;6084729;23;20426;-76
2022/07/11 11:24:11;;;;;;;1.50;0.90;;;22.60;93.90;;;;;;6105680;23;20431;-77
2022/07/11 11:26:47;;;;;;;1.50;0.90;;;22.60;92.80;;;;;;6102016;23;20417;-78
2022/07/11 11:29:20;;;;;;;1.50;0.90;;;22.70;93.00;;;;;;6097074;23;20431;-79
2022/07/11 11:31:51;;;;;;;1.47;0.80;;;22.80;92.90;;;;;;6089216;23;20482;-79
2022/07/11 11:34:27;;;;;;;1.50;0.80;;;22.90;92.80;;;;;;6114074;23;20449;-81
2022/07/11 11:37:01;;;;;;;1.47;0.90;;;22.90;91.80;;;;;;6084075;23;20664;-79
2022/07/11 11:39:32;;;;;;;1.47;0.90;;;22.90;91.70;;;;;;6100755;23;20916;-80
2022/07/11 11:45:00;;;;;;;1.47;0.90;;;23.00;91.40;;;;;;6099977;23;20534;-79
2022/07/11 11:47:31;;;;;;;1.43;0.90;;;22.90;91.50;;;;;;6084434;23;20481;-79
2022/07/11 11:49:59;;;;;;;1.50;0.90;;;23.00;91.90;;;;;;6111260;23;20452;-80
2022/07/11 11:52:29;;;;;;;1.50;0.90;;;23.10;90.90;;;;;;6088040;23;20461;-78
2022/07/11 11:54:59;;;;;;;1.50;0.80;;;23.20;90.40;;;;;;6103183;23;20442;-78
2022/07/11 11:57:28;;;;;;;1.50;0.90;;;23.30;90.40;;;;;;6087240;23;20474;-79
2022/07/11 11:59:57;;;;;;;1.50;1.10;;;23.40;90.10;;;;;;6100789;23;20489;-79
2022/07/11 12:02:26;;;;;;;1.47;0.90;;;23.40;89.80;;;;;;6083396;23;21043;-79
2022/07/11 12:04:56;;;;;;;1.63;1.10;;;23.40;90.00;;;;;;6112571;23;20470;-79
2022/07/11 12:07:27;;;;;;;1.50;0.87;;;23.50;90.30;;;;;;6086944;23;20671;-79
2022/07/11 12:09:57;;;;;;;1.47;0.80;;;23.50;89.40;;;;;;6100026;23;20445;-79
2022/07/11 12:15:28;;;;;;;1.50;0.90;;;23.60;90.20;;;;;;6111833;23;20437;-79
2022/07/11 12:18:06;;;;;;;1.50;0.90;;;23.70;90.40;;;;;;6101926;23;20446;-79
2022/07/11 12:20:38;;;;;;;1.43;0.87;;;23.70;90.40;;;;;;6110266;23;20402;-79
2022/07/11 12:23:09;;;;;;;1.47;0.80;;;23.60;89.80;;;;;;6086489;23;20846;-78
2022/07/11 12:25:37;;;;;;;1.47;0.90;;;23.50;90.00;;;;;;6104101;23;20537;-78
2022/07/11 12:28:09;;;;;;;1.47;0.90;;;23.40;90.50;;;;;;6087913;23;20475;-80
2022/07/11 12:30:37;;;;;;;1.50;0.90;;;23.40;90.00;;;;;;6109831;23;20461;-79
2022/07/11 12:33:06;;;;;;;1.43;0.90;;;23.40;91.10;;;;;;6081811;23;20498;-78
2022/07/11 12:35:41;;;;;;;1.47;0.90;;;23.50;90.90;;;;;;6101853;23;20574;-78
2022/07/11 12:38:10;;;;;;;1.50;0.90;;;23.50;90.10;;;;;;6086548;23;20513;-79
2022/07/11 12:40:38;;;;;;;1.47;0.90;;;23.50;89.40;;;;;;6103251;23;20426;-80
2022/07/11 12:44:57;;;;;;;1.47;0.80;;;23.60;89.90;;;;;;6082095;23;20550;-80
2022/07/11 12:46:04;;;;;;;1.43;0.90;;;23.70;89.60;;;;;;6083362;23;20829;-79
2022/07/11 12:48:41;;;;;;;1.47;0.90;;;23.70;88.50;;;;;;6105255;23;20784;-80
2022/07/11 12:51:09;;;;;;;1.43;0.80;;;23.70;88.60;;;;;;6083314;23;20964;-79
2022/07/11 12:53:40;;;;;;;1.47;0.87;;;23.70;88.30;;;;;;6099093;23;20430;-79
2022/07/11 12:56:23;;;;;;;1.50;0.90;;;23.70;89.10;;;;;;6108577;23;20466;-80
2022/07/11 12:58:50;;;;;;;1.50;0.90;;;23.80;88.80;;;;;;6109035;23;20418;-79
2022/07/11 13:01:18;;;;;;;1.47;0.90;;;23.90;88.60;;;;;;6082627;23;20970;-79
2022/07/11 13:03:49;;;;;;;1.50;0.90;;;23.80;88.80;;;;;;6102148;23;20426;-79
2022/07/11 13:06:17;;;;;;;1.43;0.90;;;23.80;88.40;;;;;;6085407;23;20459;-79
2022/07/11 13:08:45;;;;;;;1.60;1.27;;;23.80;88.00;;;;;;6101439;23;20822;-79
2022/07/11 13:11:15;;;;;;;1.47;0.87;;;23.70;87.80;;;;;;6103519;23;20449;-78
2022/07/11 13:13:43;;;;;;;1.50;0.80;;;23.60;87.50;;;;;;6095932;23;20434;-78
2022/07/11 13:16:11;;;;;;;1.47;0.90;;;23.70;89.10;;;;;;6090104;23;21035;-80